createdAt,value
2023-03-27T00:01:35.097Z,81.18
2023-03-27T00:04:09.446Z,80.44
2023-03-27T00:06:39.383Z,80.72
2023-03-27T00:09:12.193Z,80.79
2023-03-27T00:11:42.442Z,80.92
2023-03-27T00:14:12.331Z,80.47
2023-03-27T00:16:42.373Z,80.73
2023-03-27T00:19:12.684Z,81.21
2023-03-27T00:21:48.193Z,81.33
2023-03-27T00:24:20.881Z,81.35
2023-03-27T00:26:50.857Z,81.36
2023-03-27T00:29:21.065Z,81.35
2023-03-27T00:31:51.285Z,81.22
2023-03-27T00:34:21.190Z,81.48
2023-03-27T00:36:52.302Z,80.66
2023-03-27T00:39:25.105Z,81.35
2023-03-27T00:41:55.694Z,81.08
2023-03-27T00:44:31.378Z,81.72
2023-03-27T00:47:03.049Z,81.30
2023-03-27T00:49:37.188Z,81.86
2023-03-27T00:52:13.257Z,81.88
2023-03-27T00:54:47.451Z,81.52
2023-03-27T00:57:22.212Z,81.51
2023-03-27T00:59:57.535Z,82.05
2023-03-27T01:02:27.775Z,81.68
2023-03-27T01:04:58.141Z,81.72
2023-03-27T01:07:28.847Z,81.86
2023-03-27T01:10:02.077Z,81.01
2023-03-27T01:12:41.474Z,81.28
2023-03-27T01:15:24.958Z,81.42
2023-03-27T01:18:11.069Z,81.47
2023-03-27T01:21:03.981Z,81.89
2023-03-27T01:24:20.019Z,81.59
2023-03-27T01:27:03.091Z,81.90
2023-03-27T01:29:42.036Z,81.83
2023-03-27T01:32:35.212Z,82.07
2023-03-27T01:35:40.725Z,82.97
2023-03-27T01:38:41.249Z,82.52
2023-03-27T01:41:19.594Z,82.32
2023-03-27T01:43:56.360Z,82.73
2023-03-27T01:46:29.869Z,82.35
2023-03-27T01:49:05.444Z,83.05
2023-03-27T01:51:39.668Z,83.10
2023-03-27T01:54:17.914Z,83.02
2023-03-27T01:56:55.458Z,83.46
2023-03-27T01:59:28.911Z,82.95
2023-03-27T02:02:03.673Z,83.06
2023-03-27T02:04:41.515Z,82.89
2023-03-27T02:07:18.952Z,83.29
2023-03-27T02:09:53.009Z,83.29
2023-03-27T02:12:31.150Z,82.64
2023-03-27T02:15:24.693Z,83.54
2023-03-27T02:18:05.132Z,83.34
2023-03-27T02:20:36.637Z,83.14
2023-03-27T02:23:07.867Z,83.43
2023-03-27T02:25:39.949Z,83.57
2023-03-27T02:28:29.424Z,83.64
2023-03-27T02:31:32.424Z,83.53
2023-03-27T02:34:08.191Z,83.72
2023-03-27T02:36:47.994Z,84.01
2023-03-27T02:39:23.195Z,84.11
2023-03-27T02:41:57.750Z,84.32
2023-03-27T02:44:35.710Z,84.34
2023-03-27T02:47:22.553Z,84.25
2023-03-27T02:49:57.340Z,84.49
2023-03-27T02:52:34.918Z,84.70
2023-03-27T02:55:09.626Z,84.94
2023-03-27T02:57:51.961Z,85.22
2023-03-27T03:00:29.808Z,85.17
2023-03-27T03:03:05.807Z,85.70
2023-03-27T03:05:37.459Z,85.52
2023-03-27T03:08:10.390Z,85.18
2023-03-27T03:10:45.522Z,85.02
2023-03-27T03:13:15.570Z,85.69
2023-03-27T03:15:50.471Z,86.02
2023-03-27T03:18:20.767Z,85.65
2023-03-27T03:20:51.755Z,85.61
2023-03-27T03:23:22.006Z,86.14
2023-03-27T03:25:57.111Z,85.66
2023-03-27T03:28:28.836Z,85.47
2023-03-27T03:31:02.953Z,85.57
2023-03-27T03:33:33.058Z,86.02
2023-03-27T03:36:02.875Z,85.71
2023-03-27T03:38:37.837Z,85.77
2023-03-27T03:41:09.065Z,85.83
2023-03-27T03:43:38.941Z,85.81
2023-03-27T03:46:11.622Z,85.78
2023-03-27T03:48:41.693Z,85.92
2023-03-27T03:51:11.519Z,85.86
2023-03-27T03:53:41.420Z,85.82
2023-03-27T03:56:11.846Z,85.86
2023-03-27T03:58:41.711Z,85.98
2023-03-27T04:01:14.229Z,86.37
2023-03-27T04:03:44.373Z,86.47
2023-03-27T04:06:17.730Z,86.46
2023-03-27T04:08:50.662Z,86.52
2023-03-27T04:11:20.604Z,86.69
2023-03-27T04:13:50.536Z,86.02
2023-03-27T04:16:22.997Z,86.10
2023-03-27T04:18:54.625Z,86.19
2023-03-27T04:21:26.970Z,86.13
2023-03-27T04:24:02.558Z,86.01
2023-03-27T04:26:33.168Z,86.24
2023-03-27T04:29:02.946Z,86.18
2023-03-27T04:31:35.350Z,86.36
2023-03-27T04:34:05.257Z,86.36
2023-03-27T04:36:35.429Z,86.38
2023-03-27T04:39:05.340Z,86.60
2023-03-27T04:41:35.227Z,86.67
2023-03-27T04:44:05.612Z,86.36
2023-03-27T04:46:38.295Z,86.88
2023-03-27T04:49:08.337Z,87.30
2023-03-27T04:51:38.780Z,87.28
2023-03-27T04:54:08.912Z,87.28
2023-03-27T04:56:38.833Z,87.10
2023-03-27T04:59:09.125Z,87.58
2023-03-27T05:01:41.922Z,87.89
2023-03-27T05:04:11.858Z,88.23
2023-03-27T05:06:41.947Z,88.54
2023-03-27T05:09:12.219Z,88.51
2023-03-27T05:11:42.066Z,88.47
2023-03-27T05:14:11.881Z,88.28
2023-03-27T05:16:44.519Z,88.10
2023-03-27T05:19:14.742Z,87.90
2023-03-27T05:21:44.959Z,87.77
2023-03-27T05:24:14.889Z,87.70
2023-03-27T05:26:45.410Z,87.96
2023-03-27T05:29:15.614Z,88.20
2023-03-27T05:31:48.339Z,88.15
2023-03-27T05:34:19.442Z,88.18
2023-03-27T05:36:49.973Z,88.28
2023-03-27T05:39:20.017Z,88.63
2023-03-27T05:41:49.918Z,89.06
2023-03-27T05:44:19.845Z,89.80
2023-03-27T05:46:52.721Z,89.73
2023-03-27T05:49:22.603Z,89.34
2023-03-27T05:51:52.886Z,89.92
2023-03-27T05:54:22.792Z,90.47
2023-03-27T05:56:52.905Z,90.48
2023-03-27T05:59:23.786Z,90.23
2023-03-27T06:01:58.732Z,90.48
2023-03-27T06:04:29.016Z,90.66
2023-03-27T06:06:58.884Z,90.42
2023-03-27T06:09:28.785Z,90.80
2023-03-27T06:11:58.696Z,90.76
2023-03-27T06:14:28.741Z,90.60
2023-03-27T06:17:01.299Z,90.46
2023-03-27T06:19:31.265Z,90.45
2023-03-27T06:22:01.421Z,90.48
2023-03-27T06:24:31.361Z,90.41
2023-03-27T06:27:01.339Z,90.30
2023-03-27T06:29:31.622Z,90.21
2023-03-27T06:32:05.103Z,90.52
2023-03-27T06:34:35.103Z,90.44
2023-03-27T06:37:05.688Z,90.45
2023-03-27T06:39:35.938Z,90.50
2023-03-27T06:42:05.792Z,89.98
2023-03-27T06:44:35.960Z,90.31
2023-03-27T06:47:08.848Z,89.52
2023-03-27T06:49:38.888Z,89.50
2023-03-27T06:52:08.787Z,89.09
2023-03-27T06:54:38.861Z,88.86
2023-03-27T06:57:08.676Z,88.95
2023-03-27T06:59:38.763Z,88.50
2023-03-27T07:02:14.682Z,86.87
2023-03-27T07:04:54.128Z,86.76
2023-03-27T07:07:28.979Z,86.54
2023-03-27T07:09:59.537Z,86.15
2023-03-27T07:12:29.640Z,85.41
2023-03-27T07:15:02.404Z,85.75
2023-03-27T07:17:47.914Z,84.84
2023-03-27T07:20:19.713Z,84.70
2023-03-27T07:22:49.714Z,84.04
2023-03-27T07:25:19.804Z,82.86
2023-03-27T07:27:49.810Z,81.86
2023-03-27T07:30:19.957Z,81.08
2023-03-27T07:32:52.661Z,81.07
2023-03-27T07:35:22.969Z,81.02
2023-03-27T07:37:52.888Z,80.94
2023-03-27T07:40:36.938Z,81.12
2023-03-27T07:43:07.474Z,81.08
2023-03-27T07:45:39.152Z,81.31
2023-03-27T07:48:15.160Z,81.74
2023-03-27T07:50:45.870Z,81.34
2023-03-27T07:53:34.376Z,81.02
2023-03-27T07:56:05.704Z,81.14
2023-03-27T07:58:35.776Z,81.53
2023-03-27T08:01:06.522Z,80.44
2023-03-27T08:03:39.276Z,79.08
2023-03-27T08:06:10.660Z,79.92
2023-03-27T08:08:40.789Z,77.55
2023-03-27T08:11:23.101Z,77.67
2023-03-27T08:13:58.573Z,77.30
2023-03-27T08:16:30.301Z,77.90
2023-03-27T08:19:04.668Z,76.14
2023-03-27T08:21:35.344Z,75.85
2023-03-27T08:24:05.756Z,74.21
2023-03-27T08:26:36.506Z,76.76
2023-03-27T08:29:07.569Z,77.79
2023-03-27T08:31:39.840Z,76.60
2023-03-27T08:34:12.427Z,75.56
2023-03-27T08:36:42.282Z,76.92
2023-03-27T08:39:12.239Z,76.51
2023-03-27T08:41:52.059Z,75.86
2023-03-27T08:44:24.937Z,75.55
2023-03-27T08:46:59.126Z,72.39
2023-03-27T08:49:36.879Z,74.10
2023-03-27T08:52:14.990Z,75.25
2023-03-27T08:54:47.388Z,74.71
2023-03-27T08:57:21.918Z,73.45
2023-03-27T08:59:53.918Z,73.88
2023-03-27T09:02:33.330Z,74.25
2023-03-27T09:05:12.854Z,74.02
2023-03-27T09:07:54.541Z,73.28
2023-03-27T09:10:33.351Z,74.35
2023-03-27T09:13:11.636Z,74.38
2023-03-27T09:15:49.755Z,73.28
2023-03-27T09:18:24.504Z,74.77
2023-03-27T09:21:00.825Z,74.28
2023-03-27T09:23:36.411Z,74.43
2023-03-27T09:26:12.898Z,74.44
2023-03-27T09:28:51.913Z,74.14
2023-03-27T09:31:29.479Z,74.75
2023-03-27T09:34:11.570Z,71.71
2023-03-27T09:36:44.862Z,71.27
2023-03-27T09:39:22.166Z,72.33
2023-03-27T09:41:55.596Z,72.43
2023-03-27T09:44:28.808Z,72.18
2023-03-27T09:47:04.589Z,72.35
2023-03-27T09:49:36.046Z,72.16
2023-03-27T09:52:08.525Z,72.01
2023-03-27T09:54:56.416Z,67.91
2023-03-27T09:57:34.189Z,67.56
2023-03-27T10:00:15.761Z,69.06
2023-03-27T10:02:46.116Z,66.61
2023-03-27T10:05:22.420Z,60.12
2023-03-27T10:07:54.913Z,65.52
2023-03-27T10:10:26.933Z,62.78
2023-03-27T10:13:00.175Z,63.72
2023-03-27T10:15:39.006Z,63.43
2023-03-27T10:18:27.485Z,63.77
2023-03-27T10:20:59.627Z,66.83
2023-03-27T10:23:43.188Z,62.34
2023-03-27T10:26:20.074Z,63.45
2023-03-27T10:28:52.009Z,66.39
2023-03-27T10:31:32.305Z,61.61
2023-03-27T10:34:06.171Z,64.47
2023-03-27T10:36:37.647Z,65.15
2023-03-27T10:39:15.653Z,63.07
2023-03-27T10:41:45.543Z,65.07
2023-03-27T10:44:20.450Z,61.90
2023-03-27T10:46:50.518Z,61.27
2023-03-27T10:49:31.737Z,60.18
2023-03-27T10:52:10.416Z,60.83
2023-03-27T10:54:51.360Z,62.50
2023-03-27T10:57:27.064Z,62.63
2023-03-27T11:00:07.468Z,61.66
2023-03-27T11:02:43.104Z,65.08
2023-03-27T11:05:15.613Z,67.79
2023-03-27T11:07:49.885Z,70.73
2023-03-27T11:10:25.781Z,71.24
2023-03-27T11:13:01.839Z,72.45
2023-03-27T11:15:37.161Z,73.81
2023-03-27T11:18:16.228Z,74.32
2023-03-27T11:20:52.038Z,74.49
2023-03-27T11:23:29.049Z,74.25
2023-03-27T11:26:04.249Z,73.70
2023-03-27T11:28:43.180Z,73.91
2023-03-27T11:31:21.757Z,74.39
2023-03-27T11:33:55.992Z,72.27
2023-03-27T11:36:40.011Z,71.49
2023-03-27T11:39:19.259Z,71.13
2023-03-27T11:41:55.334Z,70.01
2023-03-27T11:44:30.587Z,70.22
2023-03-27T11:47:16.612Z,68.38
2023-03-27T11:50:11.716Z,67.88
2023-03-27T11:52:55.618Z,66.60
2023-03-27T11:55:32.672Z,69.33
2023-03-27T11:58:23.852Z,69.02
2023-03-27T12:01:02.449Z,69.91
2023-03-27T12:03:53.085Z,67.08
2023-03-27T12:06:32.546Z,68.77
2023-03-27T12:09:18.608Z,67.06
2023-03-27T12:11:52.415Z,67.87
2023-03-27T12:14:47.089Z,64.13
2023-03-27T12:17:38.140Z,64.55
2023-03-27T12:20:52.828Z,64.88
2023-03-27T12:23:48.260Z,63.72
2023-03-27T12:26:42.219Z,64.33
2023-03-27T12:29:25.100Z,63.07
2023-03-27T12:32:23.811Z,62.39
2023-03-27T12:34:58.500Z,64.58
2023-03-27T12:37:31.965Z,64.60
2023-03-27T12:40:10.672Z,64.35
2023-03-27T12:42:45.766Z,63.94
2023-03-27T12:45:22.588Z,64.51
2023-03-27T12:48:26.223Z,61.99
2023-03-27T12:51:01.175Z,61.32
2023-03-27T12:53:50.533Z,60.50
2023-03-27T12:56:39.062Z,61.57
2023-03-27T12:59:24.007Z,59.86
2023-03-27T13:02:27.049Z,63.01
2023-03-27T13:05:27.310Z,65.61
2023-03-27T13:08:11.951Z,66.75
2023-03-27T13:10:55.921Z,69.23
2023-03-27T13:13:52.250Z,72.26
2023-03-27T13:16:40.599Z,71.71
2023-03-27T13:19:29.213Z,72.78
2023-03-27T13:22:15.928Z,72.68
2023-03-27T13:25:01.133Z,73.02
2023-03-27T13:27:44.220Z,73.75
2023-03-27T13:30:44.001Z,73.44
2023-03-27T13:33:19.238Z,72.68
2023-03-27T13:36:05.993Z,73.69
2023-03-27T13:39:08.576Z,74.54
2023-03-27T13:41:57.830Z,74.85
2023-03-27T13:44:47.352Z,73.24
2023-03-27T13:47:50.984Z,71.84
2023-03-27T13:50:54.667Z,72.83
2023-03-27T13:53:45.848Z,70.61
2023-03-27T13:56:46.691Z,70.91
2023-03-27T13:59:29.682Z,70.55
2023-03-27T14:02:20.352Z,70.21
2023-03-27T14:05:17.996Z,70.70
2023-03-27T14:08:13.306Z,70.21
2023-03-27T14:11:11.379Z,70.56
2023-03-27T14:13:59.962Z,70.46
2023-03-27T14:16:50.645Z,70.29
2023-03-27T14:19:44.874Z,68.85
2023-03-27T14:22:20.229Z,69.14
2023-03-27T14:24:56.234Z,68.70
2023-03-27T14:27:27.954Z,69.06
2023-03-27T14:30:09.686Z,69.51
2023-03-27T14:32:40.304Z,69.40
2023-03-27T14:35:27.823Z,68.30
2023-03-27T14:38:00.315Z,67.92
2023-03-27T14:40:33.977Z,66.95
2023-03-27T14:43:05.758Z,67.66
2023-03-27T14:45:41.032Z,65.96
2023-03-27T14:48:19.411Z,66.26
2023-03-27T14:50:50.581Z,65.67
2023-03-27T14:53:26.259Z,65.91
2023-03-27T14:55:57.902Z,65.64
2023-03-27T14:58:28.820Z,66.16
2023-03-27T15:01:04.327Z,63.30
2023-03-27T15:03:35.739Z,65.97
2023-03-27T15:06:08.329Z,64.46
2023-03-27T15:08:39.890Z,65.22
2023-03-27T15:11:14.424Z,62.39
2023-03-27T15:13:48.249Z,64.73
2023-03-27T15:16:25.245Z,63.07
2023-03-27T15:19:12.839Z,62.36
2023-03-27T15:21:57.426Z,60.46
2023-03-27T15:24:37.044Z,60.12
2023-03-27T15:27:07.714Z,61.69
2023-03-27T15:29:43.296Z,61.37
2023-03-27T15:32:22.333Z,61.83
2023-03-27T15:34:58.230Z,60.94
2023-03-27T15:37:30.976Z,60.30
2023-03-27T15:40:33.222Z,59.69
2023-03-27T15:43:11.943Z,61.21
2023-03-27T15:45:44.463Z,61.32
2023-03-27T15:48:25.800Z,61.23
2023-03-27T15:51:01.562Z,62.53
2023-03-27T15:53:36.896Z,61.23
2023-03-27T15:56:10.651Z,63.34
2023-03-27T15:58:49.728Z,63.66
2023-03-27T16:01:23.251Z,63.32
2023-03-27T16:03:58.522Z,64.07
2023-03-27T16:06:33.698Z,63.66
2023-03-27T16:09:05.475Z,62.44
2023-03-27T16:11:37.876Z,62.05
2023-03-27T16:14:07.969Z,61.71
2023-03-27T16:16:37.913Z,63.42
2023-03-27T16:19:15.751Z,63.36
2023-03-27T16:21:59.197Z,62.47
2023-03-27T16:24:29.163Z,63.56
2023-03-27T16:26:59.280Z,64.61
2023-03-27T16:29:29.243Z,64.16
2023-03-27T16:31:59.355Z,64.29
2023-03-27T16:34:31.980Z,63.63
2023-03-27T16:37:02.300Z,64.48
2023-03-27T16:39:32.355Z,63.93
2023-03-27T16:42:02.199Z,63.37
2023-03-27T16:44:32.178Z,63.04
2023-03-27T16:47:02.152Z,61.17
2023-03-27T16:49:34.732Z,61.89
2023-03-27T16:52:04.853Z,63.22
2023-03-27T16:54:35.058Z,64.53
2023-03-27T16:57:05.059Z,64.28
2023-03-27T16:59:35.235Z,64.85
2023-03-27T17:02:05.782Z,65.00
2023-03-27T17:04:38.713Z,66.03
2023-03-27T17:07:09.580Z,65.83
2023-03-27T17:09:41.041Z,66.17
2023-03-27T17:12:11.927Z,66.81
2023-03-27T17:14:41.922Z,67.60
2023-03-27T17:17:12.334Z,67.51
2023-03-27T17:19:45.014Z,67.40
2023-03-27T17:22:16.087Z,67.83
2023-03-27T17:24:56.089Z,67.88
2023-03-27T17:27:27.726Z,68.84
2023-03-27T17:29:58.481Z,68.81
2023-03-27T17:32:29.442Z,68.51
2023-03-27T17:35:04.693Z,68.75
2023-03-27T17:37:34.857Z,68.76
2023-03-27T17:40:09.843Z,70.01
2023-03-27T17:42:40.111Z,69.81
2023-03-27T17:45:11.229Z,70.45
2023-03-27T17:47:41.515Z,70.76
2023-03-27T17:50:14.466Z,70.63
2023-03-27T17:52:44.511Z,70.85
2023-03-27T17:55:14.636Z,70.61
2023-03-27T17:57:51.045Z,70.44
2023-03-27T18:00:28.832Z,70.49
2023-03-27T18:02:58.936Z,70.74
2023-03-27T18:05:31.556Z,70.86
2023-03-27T18:08:01.493Z,71.57
2023-03-27T18:10:32.607Z,70.99
2023-03-27T18:13:04.089Z,71.58
2023-03-27T18:15:34.045Z,71.41
2023-03-27T18:18:03.972Z,71.18
2023-03-27T18:20:36.584Z,71.42
2023-03-27T18:23:06.494Z,71.54
2023-03-27T18:25:42.125Z,72.28
2023-03-27T18:28:12.717Z,72.05
2023-03-27T18:30:44.439Z,72.19
2023-03-27T18:33:14.982Z,71.93
2023-03-27T18:35:47.848Z,71.92
2023-03-27T18:38:18.435Z,71.85
2023-03-27T18:40:48.421Z,71.77
2023-03-27T18:43:18.512Z,72.18
2023-03-27T18:45:48.748Z,71.82
2023-03-27T18:48:18.785Z,72.06
2023-03-27T18:50:56.283Z,72.43
2023-03-27T18:53:26.953Z,72.10
2023-03-27T18:55:58.912Z,72.15
2023-03-27T18:58:29.661Z,71.64
2023-03-27T19:01:02.794Z,71.75
2023-03-27T19:03:35.152Z,71.75
2023-03-27T19:06:11.999Z,71.41
2023-03-27T19:08:42.756Z,71.78
2023-03-27T19:11:13.672Z,71.80
2023-03-27T19:13:43.526Z,71.78
2023-03-27T19:16:13.789Z,72.07
2023-03-27T19:18:45.078Z,72.40
2023-03-27T19:21:19.524Z,71.95
2023-03-27T19:23:49.610Z,72.02
2023-03-27T19:26:20.659Z,71.94
2023-03-27T19:28:50.623Z,72.08
2023-03-27T19:31:20.663Z,72.12
2023-03-27T19:33:50.652Z,72.30
2023-03-27T19:36:25.087Z,72.54
2023-03-27T19:38:55.019Z,72.30
2023-03-27T19:41:25.441Z,72.51
2023-03-27T19:43:57.218Z,72.88
2023-03-27T19:46:29.400Z,72.94
2023-03-27T19:48:59.503Z,73.11
2023-03-27T19:51:32.176Z,72.43
2023-03-27T19:54:02.131Z,72.81
2023-03-27T19:56:32.909Z,72.61
2023-03-27T19:59:03.810Z,72.38
2023-03-27T20:01:33.815Z,72.35
2023-03-27T20:04:04.012Z,72.31
2023-03-27T20:06:38.345Z,72.77
2023-03-27T20:09:09.308Z,72.63
2023-03-27T20:11:39.568Z,72.40
2023-03-27T20:14:09.695Z,72.57
2023-03-27T20:16:40.453Z,72.65
2023-03-27T20:19:11.070Z,72.90
2023-03-27T20:21:44.397Z,73.27
2023-03-27T20:24:18.492Z,73.14
2023-03-27T20:26:51.453Z,73.34
2023-03-27T20:29:24.499Z,73.23
2023-03-27T20:31:54.510Z,73.51
2023-03-27T20:34:24.735Z,73.30
2023-03-27T20:36:59.287Z,73.31
2023-03-27T20:39:29.885Z,73.48
2023-03-27T20:42:01.105Z,73.87
2023-03-27T20:44:35.359Z,73.98
2023-03-27T20:47:12.453Z,73.92
2023-03-27T20:49:43.275Z,74.09
2023-03-27T20:52:18.794Z,73.53
2023-03-27T20:54:49.012Z,73.47
2023-03-27T20:57:18.973Z,73.61
2023-03-27T20:59:48.946Z,73.45
2023-03-27T21:02:21.290Z,73.68
2023-03-27T21:04:54.003Z,73.80
2023-03-27T21:07:26.579Z,74.05
2023-03-27T21:09:56.698Z,74.08
2023-03-27T21:12:26.845Z,74.18
2023-03-27T21:14:56.769Z,74.09
2023-03-27T21:17:26.692Z,74.17
2023-03-27T21:19:56.701Z,74.21
2023-03-27T21:22:29.213Z,74.55
2023-03-27T21:24:59.073Z,74.63
2023-03-27T21:27:30.684Z,74.90
2023-03-27T21:30:00.612Z,74.91
2023-03-27T21:32:30.739Z,75.02
2023-03-27T21:35:00.662Z,75.01
2023-03-27T21:37:33.572Z,75.19
2023-03-27T21:40:04.912Z,74.74
2023-03-27T21:42:35.046Z,74.81
2023-03-27T21:45:05.815Z,74.99
2023-03-27T21:47:46.659Z,75.34
2023-03-27T21:50:17.382Z,74.83
2023-03-27T21:52:50.005Z,74.85
2023-03-27T21:55:20.250Z,75.04
2023-03-27T21:57:50.245Z,75.13
2023-03-27T22:00:21.023Z,75.38
2023-03-27T22:02:51.317Z,74.94
2023-03-27T22:05:21.863Z,75.00
2023-03-27T22:07:54.433Z,75.21
2023-03-27T22:10:24.429Z,75.30
2023-03-27T22:12:54.374Z,75.30
2023-03-27T22:15:24.769Z,75.49
2023-03-27T22:17:54.888Z,75.34
2023-03-27T22:20:25.957Z,75.30
2023-03-27T22:22:58.517Z,75.79
2023-03-27T22:25:28.367Z,75.90
2023-03-27T22:28:00.037Z,75.77
2023-03-27T22:30:31.743Z,76.04
2023-03-27T22:33:01.573Z,76.76
2023-03-27T22:35:31.795Z,76.32
2023-03-27T22:38:04.819Z,76.39
2023-03-27T22:40:34.751Z,76.47
2023-03-27T22:43:04.545Z,76.58
2023-03-27T22:45:34.660Z,76.60
2023-03-27T22:48:05.871Z,76.95
2023-03-27T22:50:36.496Z,77.04
2023-03-27T22:53:09.057Z,76.90
2023-03-27T22:55:39.015Z,76.49
2023-03-27T22:58:08.988Z,76.80
2023-03-27T23:00:39.148Z,76.53
2023-03-27T23:03:09.273Z,76.92
2023-03-27T23:05:42.128Z,76.56
2023-03-27T23:08:24.860Z,77.04
2023-03-27T23:10:59.143Z,77.13
2023-03-27T23:13:30.716Z,76.77
2023-03-27T23:16:01.469Z,76.83
2023-03-27T23:18:31.737Z,77.02
2023-03-27T23:21:02.915Z,77.04
2023-03-27T23:23:37.165Z,77.64
2023-03-27T23:26:08.189Z,77.33
2023-03-27T23:28:42.785Z,77.34
2023-03-27T23:31:15.896Z,77.57
2023-03-27T23:33:47.935Z,77.34
2023-03-27T23:36:20.105Z,77.71
2023-03-27T23:38:54.309Z,77.40
2023-03-27T23:41:24.684Z,77.62
2023-03-27T23:43:54.670Z,77.86
2023-03-27T23:46:24.622Z,78.06
2023-03-27T23:48:54.612Z,78.18
2023-03-27T23:51:27.304Z,78.01
2023-03-27T23:53:59.972Z,78.33
2023-03-27T23:56:29.956Z,78.18
2023-03-27T23:59:00.071Z,78.01
